Time;durP1;ratioP1;P1;durP2;ratioP2;P2;SDS_P1;SDS_P2;PMS_P1;PMS_P2;Temp;Humidity;BMP_temperature;BMP_pressure;BME280_temperature;BME280_humidity;BME280_pressure;Samples;Min_cycle;Max_cycle;Signal;HPM_P1;HPM_P2
2023/06/15 00:01:04;;;;;;;;;21.67;19.67;;;;;;;;5053320;28;45585;-80
2023/06/15 00:03:30;;;;;;;;;20.00;19.33;;;;;;;;5041956;28;45524;-78
2023/06/15 00:05:56;;;;;;;;;22.33;21.67;;;;;;;;5050775;28;45561;-79
2023/06/15 00:08:21;;;;;;;;;24.00;21.00;;;;;;;;5053965;28;46472;-80
2023/06/15 00:10:47;;;;;;;;;21.33;18.67;;;;;;;;5054272;28;45734;-80
2023/06/15 00:13:12;;;;;;;;;24.67;24.67;;;;;;;;5054115;28;45773;-80
2023/06/15 00:15:39;;;;;;;;;24.67;24.67;;;;;;;;5052860;28;45503;-78
2023/06/15 00:18:05;;;;;;;;;27.00;25.00;;;;;;;;5054073;28;45450;-78
2023/06/15 00:20:30;;;;;;;;;23.67;23.67;;;;;;;;5053906;28;45625;-80
2023/06/15 00:22:57;;;;;;;;;20.67;19.33;;;;;;;;5054056;28;45672;-79
2023/06/15 00:25:22;;;;;;;;;20.00;19.00;;;;;;;;5054069;28;45710;-80
2023/06/15 00:27:47;;;;;;;;;29.33;23.00;;;;;;;;5061034;28;46370;-79
2023/06/15 00:30:13;;;;;;;;;29.33;24.33;;;;;;;;5039278;28;45604;-80
2023/06/15 00:32:38;;;;;;;;;25.67;24.67;;;;;;;;5056179;28;45517;-79
2023/06/15 00:35:04;;;;;;;;;23.00;22.67;;;;;;;;5056990;28;45730;-79
2023/06/15 00:37:29;;;;;;;;;23.00;21.00;;;;;;;;5055827;28;45430;-79
2023/06/15 00:39:55;;;;;;;;;23.33;21.33;;;;;;;;5055011;28;45410;-79
2023/06/15 00:42:20;;;;;;;;;27.67;26.33;;;;;;;;5057681;28;45335;-79
2023/06/15 00:44:45;;;;;;;;;21.33;20.33;;;;;;;;5051569;28;47131;-79
2023/06/15 00:47:11;;;;;;;;;19.33;17.33;;;;;;;;5056631;28;46688;-79
2023/06/15 00:49:36;;;;;;;;;24.33;23.00;;;;;;;;5056451;28;45462;-80
2023/06/15 00:52:02;;;;;;;;;20.33;19.33;;;;;;;;5050735;28;45904;-78
2023/06/15 00:54:29;;;;;;;;;21.00;21.00;;;;;;;;5044316;28;46293;-79
2023/06/15 00:56:55;;;;;;;;;20.67;19.33;;;;;;;;5057645;28;46426;-79
2023/06/15 00:59:20;;;;;;;;;20.00;19.00;;;;;;;;5053791;28;46068;-80
2023/06/15 01:01:47;;;;;;;;;17.67;17.67;;;;;;;;5054158;28;46087;-80
2023/06/15 01:04:13;;;;;;;;;20.33;19.00;;;;;;;;5038920;28;46346;-79
2023/06/15 01:06:42;;;;;;;;;20.33;20.00;;;;;;;;5056643;28;45502;-78
2023/06/15 01:09:09;;;;;;;;;21.33;18.67;;;;;;;;5059453;28;47321;-79
2023/06/15 01:11:35;;;;;;;;;22.33;18.67;;;;;;;;5045830;28;45818;-78
2023/06/15 01:14:01;;;;;;;;;19.67;19.33;;;;;;;;5045517;28;45580;-78
2023/06/15 01:16:37;;;;;;;;;18.00;18.00;;;;;;;;5055993;28;45521;-77
2023/06/15 01:19:03;;;;;;;;;23.00;19.67;;;;;;;;5030827;28;45441;-79
2023/06/15 01:21:29;;;;;;;;;22.33;18.67;;;;;;;;5057152;28;45835;-79
2023/06/15 01:24:18;;;;;;;;;18.33;17.67;;;;;;;;5056881;28;45720;-78
2023/06/15 01:26:46;;;;;;;;;22.00;19.67;;;;;;;;5040514;28;48299;-79
2023/06/15 01:29:12;;;;;;;;;18.67;18.67;;;;;;;;5042169;28;45677;-79
2023/06/15 01:31:40;;;;;;;;;20.67;17.67;;;;;;;;5037579;28;46096;-81
2023/06/15 01:34:06;;;;;;;;;19.00;18.67;;;;;;;;5048932;28;45406;-79
2023/06/15 01:36:31;;;;;;;;;20.67;19.00;;;;;;;;5038110;28;47534;-80
2023/06/15 01:38:57;;;;;;;;;15.67;15.67;;;;;;;;5038053;28;45933;-80
2023/06/15 01:41:24;;;;;;;;;19.00;16.33;;;;;;;;5057143;28;45449;-80
2023/06/15 01:43:50;;;;;;;;;19.67;18.00;;;;;;;;5038340;28;47233;-79
2023/06/15 01:46:16;;;;;;;;;18.33;17.33;;;;;;;;5056117;28;45577;-81
2023/06/15 01:48:42;;;;;;;;;21.00;16.00;;;;;;;;5056871;28;45825;-79
2023/06/15 01:51:08;;;;;;;;;4.67;3.67;;;;;;;;5057159;28;45738;-79
2023/06/15 01:53:35;;;;;;;;;20.33;16.00;;;;;;;;5049572;28;46401;-80
2023/06/15 01:56:01;;;;;;;;;19.00;15.67;;;;;;;;5057309;28;46702;-80
2023/06/15 01:58:27;;;;;;;;;15.67;15.67;;;;;;;;5056033;28;45570;-80
2023/06/15 02:00:52;;;;;;;;;16.00;16.00;;;;;;;;5056698;28;45665;-78
2023/06/15 02:03:17;;;;;;;;;14.00;14.00;;;;;;;;5055620;28;45460;-79
2023/06/15 02:05:42;;;;;;;;;16.00;16.00;;;;;;;;5054320;28;46555;-80
2023/06/15 02:08:08;;;;;;;;;20.00;17.00;;;;;;;;5055227;28;45836;-79
2023/06/15 02:10:34;;;;;;;;;17.00;15.33;;;;;;;;5044902;28;45943;-79
2023/06/15 02:12:59;;;;;;;;;15.33;15.33;;;;;;;;5042156;28;45769;-80
2023/06/15 02:15:24;;;;;;;;;19.67;17.33;;;;;;;;5055402;28;46396;-79
2023/06/15 02:17:57;;;;;;;;;17.00;14.67;;;;;;;;5037222;28;45858;-81
2023/06/15 02:20:22;;;;;;;;;17.67;13.33;;;;;;;;5038067;28;45458;-80
2023/06/15 02:22:47;;;;;;;;;15.00;15.00;;;;;;;;5055365;28;45702;-79
2023/06/15 02:25:13;;;;;;;;;12.00;10.00;;;;;;;;5054823;28;45402;-78
2023/06/15 02:27:38;;;;;;;;;17.00;16.33;;;;;;;;5056729;28;45572;-80
2023/06/15 02:30:03;;;;;;;;;16.67;15.67;;;;;;;;5057255;28;45492;-80
2023/06/15 02:32:36;;;;;;;;;20.33;19.33;;;;;;;;5055419;28;45336;-81
2023/06/15 02:35:05;;;;;;;;;10.67;9.67;;;;;;;;5058049;28;46681;-80
2023/06/15 02:37:30;;;;;;;;;18.67;18.67;;;;;;;;5062792;28;45522;-80
2023/06/15 02:39:56;;;;;;;;;18.00;18.00;;;;;;;;5056595;28;45781;-79
2023/06/15 02:42:21;;;;;;;;;16.33;15.00;;;;;;;;5058932;28;45487;-80
2023/06/15 02:44:46;;;;;;;;;14.33;13.33;;;;;;;;5056034;28;45643;-80
2023/06/15 02:47:12;;;;;;;;;14.67;14.67;;;;;;;;5055402;28;45509;-79
2023/06/15 02:49:37;;;;;;;;;19.33;16.67;;;;;;;;5035980;28;45814;-80
2023/06/15 02:52:02;;;;;;;;;18.67;17.33;;;;;;;;5041424;28;45605;-80
2023/06/15 02:54:27;;;;;;;;;17.00;14.00;;;;;;;;5058684;28;46046;-80
2023/06/15 02:56:54;;;;;;;;;14.00;14.00;;;;;;;;5038247;28;45490;-79
2023/06/15 02:59:25;;;;;;;;;17.67;17.67;;;;;;;;5044059;28;45538;-79
2023/06/15 03:01:50;;;;;;;;;16.00;14.00;;;;;;;;5055626;28;46048;-80
2023/06/15 03:04:17;;;;;;;;;20.67;20.00;;;;;;;;5055206;28;46244;-79
2023/06/15 03:06:43;;;;;;;;;26.33;25.00;;;;;;;;5054829;28;45444;-79
2023/06/15 03:09:08;;;;;;;;;27.67;24.67;;;;;;;;5055761;28;45465;-79
2023/06/15 03:11:33;;;;;;;;;28.67;27.00;;;;;;;;5051818;28;45484;-79
2023/06/15 03:13:59;;;;;;;;;39.00;31.33;;;;;;;;5053600;28;46101;-80
2023/06/15 03:16:25;;;;;;;;;30.00;29.00;;;;;;;;5057156;28;45588;-80
2023/06/15 03:18:52;;;;;;;;;35.67;32.67;;;;;;;;5057296;28;45340;-80
2023/06/15 03:21:20;;;;;;;;;34.33;29.00;;;;;;;;5057415;28;45427;-81
2023/06/15 03:23:45;;;;;;;;;33.00;28.00;;;;;;;;5057698;28;45515;-79
2023/06/15 03:26:11;;;;;;;;;41.00;34.00;;;;;;;;5056954;28;45406;-81
2023/06/15 03:28:38;;;;;;;;;38.67;32.33;;;;;;;;5051050;28;45933;-81
2023/06/15 03:31:04;;;;;;;;;35.33;33.00;;;;;;;;5059656;28;45559;-79
2023/06/15 03:33:30;;;;;;;;;40.67;34.33;;;;;;;;5060576;28;46589;-81
2023/06/15 03:35:57;;;;;;;;;30.67;28.00;;;;;;;;5058437;28;45364;-80
2023/06/15 03:38:23;;;;;;;;;43.33;32.33;;;;;;;;5057989;28;45399;-81
2023/06/15 03:40:48;;;;;;;;;37.67;32.33;;;;;;;;5057254;28;45403;-79
2023/06/15 03:43:13;;;;;;;;;35.00;32.67;;;;;;;;5057122;28;46644;-81
2023/06/15 03:45:39;;;;;;;;;33.33;31.00;;;;;;;;5057578;28;45365;-80
2023/06/15 03:48:04;;;;;;;;;33.33;29.67;;;;;;;;5057350;28;45496;-80
2023/06/15 03:50:29;;;;;;;;;32.67;31.33;;;;;;;;5068004;28;45719;-82
2023/06/15 03:52:55;;;;;;;;;40.00;34.33;;;;;;;;5062828;28;45315;-80
2023/06/15 03:55:20;;;;;;;;;28.00;27.33;;;;;;;;5056679;28;45684;-80
2023/06/15 03:57:45;;;;;;;;;38.67;34.00;;;;;;;;5038997;28;45618;-79
2023/06/15 04:00:11;;;;;;;;;40.67;33.00;;;;;;;;5056490;28;45365;-80
2023/06/15 04:02:36;;;;;;;;;30.33;27.67;;;;;;;;5057315;28;45660;-81
2023/06/15 04:05:03;;;;;;;;;32.33;30.00;;;;;;;;5057182;28;45689;-81
2023/06/15 04:07:29;;;;;;;;;39.33;34.67;;;;;;;;5039293;28;45529;-80
2023/06/15 04:09:54;;;;;;;;;33.67;31.33;;;;;;;;5057266;28;45691;-80
2023/06/15 04:12:20;;;;;;;;;32.33;29.00;;;;;;;;5056410;28;45607;-82
2023/06/15 04:14:46;;;;;;;;;35.33;30.67;;;;;;;;5057913;28;45371;-80
2023/06/15 04:17:11;;;;;;;;;31.33;31.33;;;;;;;;5054744;28;45445;-81
2023/06/15 04:19:36;;;;;;;;;39.00;33.00;;;;;;;;5054813;28;46024;-79
2023/06/15 04:22:02;;;;;;;;;36.67;30.00;;;;;;;;5043547;28;46529;-80
2023/06/15 04:24:27;;;;;;;;;33.00;30.67;;;;;;;;5053727;28;45541;-81
2023/06/15 04:26:52;;;;;;;;;29.33;28.33;;;;;;;;5054430;28;45368;-79
2023/06/15 04:29:18;;;;;;;;;32.33;31.00;;;;;;;;5053944;28;46155;-80
2023/06/15 04:31:46;;;;;;;;;36.00;31.33;;;;;;;;5053072;28;46959;-80
2023/06/15 04:34:12;;;;;;;;;37.67;34.33;;;;;;;;5052314;28;45425;-78
2023/06/15 04:36:40;;;;;;;;;33.67;31.67;;;;;;;;5058360;28;45541;-80
2023/06/15 04:39:05;;;;;;;;;30.00;28.33;;;;;;;;5055431;28;45711;-82
2023/06/15 04:41:31;;;;;;;;;36.00;31.33;;;;;;;;5047260;28;46037;-81
2023/06/15 04:43:56;;;;;;;;;43.67;39.00;;;;;;;;5055169;28;45779;-82
2023/06/15 04:46:21;;;;;;;;;36.00;31.33;;;;;;;;5043970;28;45869;-78
2023/06/15 04:48:47;;;;;;;;;38.00;32.67;;;;;;;;5050291;28;45766;-79
2023/06/15 04:51:13;;;;;;;;;41.67;34.67;;;;;;;;5040609;28;47734;-80
2023/06/15 04:53:39;;;;;;;;;41.67;35.67;;;;;;;;5051148;28;45906;-79
2023/06/15 04:56:04;;;;;;;;;47.67;38.33;;;;;;;;5052257;28;45569;-82
2023/06/15 04:58:29;;;;;;;;;29.67;29.33;;;;;;;;5054072;28;45668;-78
2023/06/15 05:00:55;;;;;;;;;29.00;28.33;;;;;;;;5056632;28;45945;-79
2023/06/15 05:03:21;;;;;;;;;31.67;29.33;;;;;;;;5053273;28;45460;-79
2023/06/15 05:05:46;;;;;;;;;32.67;26.00;;;;;;;;5048996;28;45502;-79
2023/06/15 05:08:15;;;;;;;;;29.67;28.00;;;;;;;;5059436;28;45870;-82
2023/06/15 05:10:40;;;;;;;;;28.67;26.67;;;;;;;;5036399;28;47862;-81
2023/06/15 05:13:07;;;;;;;;;34.00;31.00;;;;;;;;5055112;28;45870;-79
2023/06/15 05:15:32;;;;;;;;;23.67;22.33;;;;;;;;5056851;28;45390;-78
2023/06/15 05:17:57;;;;;;;;;26.00;24.67;;;;;;;;5056745;28;45959;-78
2023/06/15 05:20:22;;;;;;;;;23.00;22.00;;;;;;;;5050767;28;46878;-79
2023/06/15 05:22:48;;;;;;;;;18.00;15.67;;;;;;;;5048802;28;45749;-79
2023/06/15 05:25:13;;;;;;;;;19.67;19.67;;;;;;;;5059385;28;45411;-81
2023/06/15 05:27:39;;;;;;;;;26.33;22.33;;;;;;;;5058912;28;46431;-84
2023/06/15 05:30:08;;;;;;;;;22.67;21.67;;;;;;;;5062428;28;46389;-82
2023/06/15 05:32:37;;;;;;;;;21.00;19.67;;;;;;;;5045058;28;45826;-78
2023/06/15 05:35:03;;;;;;;;;20.00;16.00;;;;;;;;5050571;28;45623;-78
2023/06/15 05:37:29;;;;;;;;;19.33;14.67;;;;;;;;5057314;28;45817;-80
2023/06/15 05:39:54;;;;;;;;;13.00;13.00;;;;;;;;5047202;28;47464;-80
2023/06/15 05:42:19;;;;;;;;;20.67;18.67;;;;;;;;5044615;28;45762;-78
2023/06/15 05:44:45;;;;;;;;;22.67;18.33;;;;;;;;5048815;28;46112;-80
2023/06/15 05:47:10;;;;;;;;;25.67;22.67;;;;;;;;5058574;28;45571;-80
2023/06/15 05:49:35;;;;;;;;;24.00;19.67;;;;;;;;5057918;28;45627;-79
2023/06/15 05:52:01;;;;;;;;;26.00;22.67;;;;;;;;5057593;28;45398;-81
2023/06/15 05:54:26;;;;;;;;;34.67;30.00;;;;;;;;5044839;28;45426;-80
2023/06/15 05:56:51;;;;;;;;;22.00;16.67;;;;;;;;5058928;28;45506;-80
2023/06/15 05:59:16;;;;;;;;;19.00;14.67;;;;;;;;5058698;28;46012;-79
2023/06/15 06:01:42;;;;;;;;;18.00;15.00;;;;;;;;5061573;28;45471;-81
2023/06/15 06:04:07;;;;;;;;;18.00;15.00;;;;;;;;5066488;28;45652;-80
2023/06/15 06:06:32;;;;;;;;;18.00;17.00;;;;;;;;5051992;28;46458;-81
2023/06/15 06:08:58;;;;;;;;;14.33;13.67;;;;;;;;5053631;28;45452;-81
2023/06/15 06:11:23;;;;;;;;;22.00;14.67;;;;;;;;5058393;27;45926;-81
2023/06/15 06:13:48;;;;;;;;;12.67;10.67;;;;;;;;5062615;28;45703;-80
2023/06/15 06:16:14;;;;;;;;;13.67;13.00;;;;;;;;5055056;28;45923;-80
2023/06/15 06:18:39;;;;;;;;;9.00;9.00;;;;;;;;5061183;28;45482;-80
2023/06/15 06:21:05;;;;;;;;;11.00;11.00;;;;;;;;5072147;28;45711;-79
2023/06/15 06:23:32;;;;;;;;;13.33;11.00;;;;;;;;5048700;28;45351;-80
2023/06/15 06:25:58;;;;;;;;;11.00;9.67;;;;;;;;5056501;28;45790;-84
2023/06/15 06:28:23;;;;;;;;;12.33;11.00;;;;;;;;5057868;28;45355;-80
2023/06/15 06:30:48;;;;;;;;;11.00;11.00;;;;;;;;5061896;28;45296;-78
2023/06/15 06:33:14;;;;;;;;;13.33;11.00;;;;;;;;5037337;28;44798;-80
2023/06/15 06:35:39;;;;;;;;;16.67;12.33;;;;;;;;5058953;28;45857;-80
2023/06/15 06:38:04;;;;;;;;;11.00;11.00;;;;;;;;5042825;28;46047;-79
2023/06/15 06:40:30;;;;;;;;;12.67;12.67;;;;;;;;5039225;28;45580;-80
2023/06/15 06:42:55;;;;;;;;;10.67;10.67;;;;;;;;5059556;28;45696;-80
2023/06/15 06:45:21;;;;;;;;;9.33;9.33;;;;;;;;5066001;28;45744;-80
2023/06/15 06:47:46;;;;;;;;;12.00;9.00;;;;;;;;5060040;28;45188;-78
2023/06/15 06:50:11;;;;;;;;;11.67;11.00;;;;;;;;5048799;28;45508;-78
2023/06/15 06:52:42;;;;;;;;;11.00;10.00;;;;;;;;5057943;28;44819;-80
2023/06/15 06:55:07;;;;;;;;;15.33;12.67;;;;;;;;5040066;28;45522;-78
2023/06/15 06:57:33;;;;;;;;;11.00;8.67;;;;;;;;5053485;28;45516;-78
2023/06/15 06:59:58;;;;;;;;;14.33;13.00;;;;;;;;5058452;28;45813;-78
2023/06/15 07:02:28;;;;;;;;;11.00;10.00;;;;;;;;5040701;28;45355;-80
2023/06/15 07:04:54;;;;;;;;;14.67;12.00;;;;;;;;5051136;28;45217;-80
2023/06/15 07:07:19;;;;;;;;;14.00;13.00;;;;;;;;5058516;28;45966;-79
2023/06/15 07:09:44;;;;;;;;;11.00;10.67;;;;;;;;5058150;28;45524;-80
2023/06/15 07:12:09;;;;;;;;;12.00;11.00;;;;;;;;5058762;28;45376;-80
2023/06/15 07:14:35;;;;;;;;;17.00;11.00;;;;;;;;5058467;28;45864;-78
2023/06/15 07:17:01;;;;;;;;;9.33;9.00;;;;;;;;5058331;28;45399;-80
2023/06/15 07:19:26;;;;;;;;;8.67;8.67;;;;;;;;5041298;28;45513;-80
2023/06/15 07:21:51;;;;;;;;;11.00;9.33;;;;;;;;5050199;28;45715;-77
2023/06/15 07:24:17;;;;;;;;;10.00;9.33;;;;;;;;5059911;28;45429;-79
2023/06/15 07:26:42;;;;;;;;;11.67;10.67;;;;;;;;5059314;28;46081;-80
2023/06/15 07:29:07;;;;;;;;;9.33;8.00;;;;;;;;5059398;28;45293;-80
2023/06/15 07:31:32;;;;;;;;;9.67;9.67;;;;;;;;5040540;28;45337;-79
2023/06/15 07:33:59;;;;;;;;;10.67;9.67;;;;;;;;5057310;28;45515;-80
2023/06/15 07:36:24;;;;;;;;;11.67;10.00;;;;;;;;5043564;28;45939;-80
2023/06/15 07:38:52;;;;;;;;;13.67;10.00;;;;;;;;5044351;28;45380;-79
2023/06/15 07:41:17;;;;;;;;;9.67;9.67;;;;;;;;5062372;28;45682;-78
2023/06/15 07:43:42;;;;;;;;;12.00;9.00;;;;;;;;5040921;28;47051;-80
2023/06/15 07:46:08;;;;;;;;;13.00;11.00;;;;;;;;5059498;28;45409;-78
2023/06/15 07:48:33;;;;;;;;;10.33;10.33;;;;;;;;5056286;28;45795;-79
2023/06/15 07:50:58;;;;;;;;;13.33;10.33;;;;;;;;5056635;28;45477;-81
2023/06/15 07:53:24;;;;;;;;;10.33;10.33;;;;;;;;5047118;28;45777;-82
2023/06/15 07:55:49;;;;;;;;;9.67;8.67;;;;;;;;5056383;28;45626;-79
2023/06/15 07:58:14;;;;;;;;;14.00;11.33;;;;;;;;5060887;28;45434;-80
2023/06/15 08:00:40;;;;;;;;;10.67;9.33;;;;;;;;5057793;28;45636;-78
2023/06/15 08:03:05;;;;;;;;;11.00;10.00;;;;;;;;5056725;28;45709;-78
2023/06/15 08:05:31;;;;;;;;;7.67;7.67;;;;;;;;5066880;28;45527;-79
2023/06/15 08:07:56;;;;;;;;;9.67;9.67;;;;;;;;5044011;28;45383;-79
2023/06/15 08:10:22;;;;;;;;;11.00;11.00;;;;;;;;5056533;28;45383;-79
2023/06/15 08:12:47;;;;;;;;;10.00;9.00;;;;;;;;5046495;28;45678;-79
2023/06/15 08:15:12;;;;;;;;;9.67;9.00;;;;;;;;5051976;28;46499;-81
2023/06/15 08:17:38;;;;;;;;;10.33;8.67;;;;;;;;5053469;28;46113;-80
2023/06/15 08:20:09;;;;;;;;;7.67;7.67;;;;;;;;5057686;28;45292;-80
2023/06/15 08:22:35;;;;;;;;;9.33;8.00;;;;;;;;5044388;28;45701;-79
2023/06/15 08:25:00;;;;;;;;;8.00;8.00;;;;;;;;5055748;28;46804;-80
2023/06/15 08:27:25;;;;;;;;;7.33;7.33;;;;;;;;5055484;28;45315;-81
2023/06/15 08:29:51;;;;;;;;;8.67;7.00;;;;;;;;5056394;28;45300;-79
2023/06/15 08:32:16;;;;;;;;;4.67;4.33;;;;;;;;5058426;28;45563;-78
2023/06/15 08:34:42;;;;;;;;;9.00;8.33;;;;;;;;5054955;28;45563;-78
2023/06/15 08:37:08;;;;;;;;;8.00;6.67;;;;;;;;5055828;28;45727;-78
2023/06/15 08:39:34;;;;;;;;;8.00;8.00;;;;;;;;5055785;28;45490;-79
2023/06/15 08:42:01;;;;;;;;;8.00;8.00;;;;;;;;5056414;28;45328;-78
2023/06/15 08:44:26;;;;;;;;;6.67;6.00;;;;;;;;5045084;28;46674;-78
2023/06/15 08:46:51;;;;;;;;;6.00;6.00;;;;;;;;5057324;28;45718;-79
2023/06/15 08:49:17;;;;;;;;;11.00;9.33;;;;;;;;5047125;28;45510;-79
2023/06/15 08:51:42;;;;;;;;;8.67;7.00;;;;;;;;5059285;28;46393;-80
2023/06/15 08:54:10;;;;;;;;;7.00;7.00;;;;;;;;5040030;28;47217;-77
2023/06/15 08:56:38;;;;;;;;;8.33;6.00;;;;;;;;5047074;28;45505;-79
2023/06/15 08:59:03;;;;;;;;;7.00;6.00;;;;;;;;5065764;28;45486;-79
2023/06/15 09:01:30;;;;;;;;;9.33;8.00;;;;;;;;5064027;28;45344;-80
2023/06/15 09:03:55;;;;;;;;;8.00;5.67;;;;;;;;5057870;28;45341;-79
2023/06/15 09:06:21;;;;;;;;;6.67;6.33;;;;;;;;5058268;28;45748;-79
2023/06/15 09:08:48;;;;;;;;;7.33;6.00;;;;;;;;5059033;28;45797;-80
2023/06/15 09:11:14;;;;;;;;;11.00;7.33;;;;;;;;5058363;28;45425;-79
2023/06/15 09:13:40;;;;;;;;;6.67;6.67;;;;;;;;5057354;28;45867;-80
2023/06/15 09:16:07;;;;;;;;;7.00;7.00;;;;;;;;5057137;28;45377;-77
2023/06/15 09:18:49;;;;;;;;;6.67;6.67;;;;;;;;5058795;28;45645;-78
2023/06/15 09:21:15;;;;;;;;;8.33;7.00;;;;;;;;5057781;28;46514;-80
2023/06/15 09:23:44;;;;;;;;;6.00;6.00;;;;;;;;5058863;28;47004;-79
2023/06/15 09:26:19;;;;;;;;;6.67;6.67;;;;;;;;5039742;28;45304;-78
2023/06/15 09:28:45;;;;;;;;;5.67;5.00;;;;;;;;5059227;28;45716;-82
2023/06/15 09:31:11;;;;;;;;;6.33;6.00;;;;;;;;5058113;28;45285;-81
2023/06/15 09:33:37;;;;;;;;;8.33;7.67;;;;;;;;5059559;28;45832;-81
2023/06/15 09:36:05;;;;;;;;;6.67;5.67;;;;;;;;5060622;28;45560;-80
2023/06/15 09:38:31;;;;;;;;;7.33;7.00;;;;;;;;5061866;28;45566;-80
2023/06/15 09:41:02;;;;;;;;;10.00;8.00;;;;;;;;5035694;28;46386;-79
2023/06/15 09:43:33;;;;;;;;;7.33;7.33;;;;;;;;5062228;28;45872;-80
2023/06/15 09:45:59;;;;;;;;;7.00;7.00;;;;;;;;5061681;28;45356;-79
2023/06/15 09:48:24;;;;;;;;;8.33;8.33;;;;;;;;5060035;28;45519;-81
2023/06/15 09:50:50;;;;;;;;;7.00;7.00;;;;;;;;5050855;28;45341;-78
2023/06/15 09:53:16;;;;;;;;;8.00;7.67;;;;;;;;5058673;28;45308;-81
2023/06/15 09:55:44;;;;;;;;;8.33;8.33;;;;;;;;5058564;28;45535;-77
2023/06/15 09:58:12;;;;;;;;;14.33;9.00;;;;;;;;5056925;28;45490;-78
2023/06/15 10:00:38;;;;;;;;;6.33;6.33;;;;;;;;5060068;28;45640;-80
2023/06/15 10:03:05;;;;;;;;;8.00;8.00;;;;;;;;5059353;28;45892;-81
2023/06/15 10:05:35;;;;;;;;;10.67;10.67;;;;;;;;5057160;28;45671;-80
2023/06/15 10:08:04;;;;;;;;;7.00;7.00;;;;;;;;5054257;28;44883;-80
2023/06/15 10:10:30;;;;;;;;;8.00;7.00;;;;;;;;5054354;28;45477;-81
2023/06/15 10:12:57;;;;;;;;;7.67;7.67;;;;;;;;5060251;28;45504;-80
2023/06/15 10:15:23;;;;;;;;;8.00;8.00;;;;;;;;5059262;28;45634;-79
2023/06/15 10:17:52;;;;;;;;;9.33;9.33;;;;;;;;5060806;28;45439;-82
2023/06/15 10:20:18;;;;;;;;;7.00;7.00;;;;;;;;5042060;28;46707;-83
2023/06/15 10:22:49;;;;;;;;;6.00;6.00;;;;;;;;5040704;28;48471;-81
2023/06/15 10:25:15;;;;;;;;;6.67;6.00;;;;;;;;5058158;28;45837;-81
2023/06/15 10:27:41;;;;;;;;;8.33;8.33;;;;;;;;5058807;28;45494;-81
2023/06/15 10:30:08;;;;;;;;;10.00;8.00;;;;;;;;5058913;28;45352;-80
2023/06/15 10:32:38;;;;;;;;;6.33;6.33;;;;;;;;5059594;28;46335;-80
2023/06/15 10:35:19;;;;;;;;;8.33;7.67;;;;;;;;5058320;28;45479;-80
2023/06/15 10:38:11;;;;;;;;;9.00;8.00;;;;;;;;5056374;28;45659;-80
2023/06/15 10:40:46;;;;;;;;;7.67;7.67;;;;;;;;5046360;28;45761;-79
2023/06/15 10:43:16;;;;;;;;;8.33;8.33;;;;;;;;5041925;28;45958;-81
2023/06/15 10:45:41;;;;;;;;;9.00;9.00;;;;;;;;5051584;28;45396;-82
2023/06/15 10:48:07;;;;;;;;;10.00;10.00;;;;;;;;5060043;28;45372;-82
2023/06/15 10:50:40;;;;;;;;;8.00;8.00;;;;;;;;5069946;28;45604;-83
2023/06/15 10:53:05;;;;;;;;;10.00;9.67;;;;;;;;5057586;28;47081;-82
2023/06/15 10:55:31;;;;;;;;;12.67;11.00;;;;;;;;5037761;28;45593;-81
2023/06/15 10:58:18;;;;;;;;;7.67;7.00;;;;;;;;5053307;28;45409;-81
2023/06/15 11:00:44;;;;;;;;;8.67;8.67;;;;;;;;5067005;27;45505;-80
2023/06/15 11:03:25;;;;;;;;;10.33;9.00;;;;;;;;5056528;28;45961;-81
2023/06/15 11:06:04;;;;;;;;;15.00;11.00;;;;;;;;5055468;28;45897;-82
2023/06/15 11:08:30;;;;;;;;;11.00;11.00;;;;;;;;5056051;28;46001;-82
2023/06/15 11:10:56;;;;;;;;;14.33;12.00;;;;;;;;5041468;28;45785;-80
2023/06/15 11:13:25;;;;;;;;;9.67;9.00;;;;;;;;5055559;28;45797;-80
2023/06/15 11:16:05;;;;;;;;;13.00;12.33;;;;;;;;5052548;28;45640;-78
2023/06/15 11:18:31;;;;;;;;;9.33;9.33;;;;;;;;5061316;28;46048;-82
2023/06/15 11:21:00;;;;;;;;;10.67;10.67;;;;;;;;5042677;28;45532;-81
2023/06/15 11:23:32;;;;;;;;;10.00;9.00;;;;;;;;5038783;28;46347;-81
2023/06/15 11:25:59;;;;;;;;;10.33;9.33;;;;;;;;5059869;28;45478;-81
2023/06/15 11:28:25;;;;;;;;;13.33;13.33;;;;;;;;5055898;28;45633;-79
2023/06/15 11:30:53;;;;;;;;;11.00;11.00;;;;;;;;5052116;28;45842;-80
2023/06/15 11:33:27;;;;;;;;;12.33;11.33;;;;;;;;5058122;28;45574;-80
2023/06/15 11:35:52;;;;;;;;;9.67;9.67;;;;;;;;5065085;28;45530;-80
2023/06/15 11:38:21;;;;;;;;;13.00;11.67;;;;;;;;5041078;28;45517;-80
2023/06/15 11:40:47;;;;;;;;;10.67;10.33;;;;;;;;5058209;28;45537;-80
2023/06/15 11:43:13;;;;;;;;;10.67;10.67;;;;;;;;5061016;28;46148;-81
2023/06/15 11:45:44;;;;;;;;;13.33;12.00;;;;;;;;5040655;28;45876;-81
2023/06/15 11:48:13;;;;;;;;;11.33;10.00;;;;;;;;5055406;28;45558;-81
2023/06/15 11:50:42;;;;;;;;;13.67;12.67;;;;;;;;5049735;28;45373;-80
2023/06/15 11:53:07;;;;;;;;;12.33;12.33;;;;;;;;5049574;28;47057;-79
2023/06/15 11:55:41;;;;;;;;;9.00;9.00;;;;;;;;5054549;28;45717;-80
2023/06/15 11:58:07;;;;;;;;;7.00;7.00;;;;;;;;5043882;28;45599;-79
2023/06/15 12:00:32;;;;;;;;;13.00;13.00;;;;;;;;5038277;28;45908;-79
2023/06/15 12:02:57;;;;;;;;;12.33;12.33;;;;;;;;5052838;28;48478;-79
2023/06/15 12:05:23;;;;;;;;;11.00;11.00;;;;;;;;5055700;28;45488;-81
2023/06/15 12:07:48;;;;;;;;;14.00;12.00;;;;;;;;5028369;28;45600;-79
2023/06/15 12:10:17;;;;;;;;;15.33;10.67;;;;;;;;5057082;28;45474;-80
2023/06/15 12:12:46;;;;;;;;;13.00;12.33;;;;;;;;5054039;28;45003;-79
2023/06/15 12:15:11;;;;;;;;;11.67;11.67;;;;;;;;5056034;28;45879;-80
2023/06/15 12:17:37;;;;;;;;;15.00;12.67;;;;;;;;5054282;28;45563;-80
2023/06/15 12:20:09;;;;;;;;;13.00;13.00;;;;;;;;5055872;28;45534;-79
2023/06/15 12:22:44;;;;;;;;;13.00;12.00;;;;;;;;5060588;28;46048;-80
2023/06/15 12:25:10;;;;;;;;;16.67;15.33;;;;;;;;5060352;28;45373;-78
2023/06/15 12:27:50;;;;;;;;;12.67;12.67;;;;;;;;5058985;28;45863;-78
2023/06/15 12:30:17;;;;;;;;;17.00;15.33;;;;;;;;5062022;28;45852;-80
2023/06/15 12:32:43;;;;;;;;;16.00;15.33;;;;;;;;5058357;28;45545;-80
2023/06/15 12:35:29;;;;;;;;;14.33;14.33;;;;;;;;5049796;28;45948;-80
2023/06/15 12:37:55;;;;;;;;;15.33;13.33;;;;;;;;5040589;28;45431;-81
2023/06/15 12:40:21;;;;;;;;;13.67;12.00;;;;;;;;5053348;28;45400;-79
2023/06/15 12:42:54;;;;;;;;;13.67;12.33;;;;;;;;5057442;28;46039;-79
2023/06/15 12:45:20;;;;;;;;;11.00;10.00;;;;;;;;5048014;28;45722;-79
2023/06/15 12:47:45;;;;;;;;;15.00;14.67;;;;;;;;5058713;28;45517;-79
2023/06/15 12:50:10;;;;;;;;;14.67;14.00;;;;;;;;5058431;28;45374;-79
2023/06/15 12:52:36;;;;;;;;;17.33;16.00;;;;;;;;5058606;28;46849;-81
2023/06/15 12:55:01;;;;;;;;;15.67;14.67;;;;;;;;5058445;28;45798;-81
2023/06/15 12:57:26;;;;;;;;;16.00;13.33;;;;;;;;5057115;28;45606;-78
2023/06/15 12:59:52;;;;;;;;;15.00;12.33;;;;;;;;5057206;28;46827;-79
2023/06/15 13:02:18;;;;;;;;;14.67;13.67;;;;;;;;5054798;28;45598;-81
2023/06/15 13:04:43;;;;;;;;;12.33;12.33;;;;;;;;5058166;28;45401;-81
2023/06/15 13:07:08;;;;;;;;;15.00;15.00;;;;;;;;5051149;28;45844;-80
2023/06/15 13:09:33;;;;;;;;;13.67;13.67;;;;;;;;5059388;28;46855;-80
2023/06/15 13:11:59;;;;;;;;;12.33;12.33;;;;;;;;5057857;28;45778;-79
2023/06/15 13:14:24;;;;;;;;;15.00;12.33;;;;;;;;5053107;28;45383;-80
2023/06/15 13:16:49;;;;;;;;;15.67;14.67;;;;;;;;5043247;28;45570;-79
2023/06/15 13:19:14;;;;;;;;;12.00;12.00;;;;;;;;5051791;28;45550;-81
2023/06/15 13:21:40;;;;;;;;;16.33;14.33;;;;;;;;5057605;28;45423;-80
2023/06/15 13:24:05;;;;;;;;;13.67;13.67;;;;;;;;5056947;28;45750;-80
2023/06/15 13:26:31;;;;;;;;;12.33;10.67;;;;;;;;5057653;28;45427;-81
2023/06/15 13:28:56;;;;;;;;;15.67;13.33;;;;;;;;5056002;28;45564;-79
2023/06/15 13:31:21;;;;;;;;;12.33;12.33;;;;;;;;5056630;28;46517;-79
2023/06/15 13:33:46;;;;;;;;;16.00;13.67;;;;;;;;5043585;28;45359;-79
2023/06/15 13:36:12;;;;;;;;;14.00;13.33;;;;;;;;5056108;28;45316;-80
2023/06/15 13:38:37;;;;;;;;;13.00;11.67;;;;;;;;5056308;28;45435;-80
2023/06/15 13:41:02;;;;;;;;;15.00;15.00;;;;;;;;5056771;28;45686;-79
2023/06/15 13:43:30;;;;;;;;;15.00;14.67;;;;;;;;5057115;28;45753;-80
2023/06/15 13:45:55;;;;;;;;;13.33;11.00;;;;;;;;5039554;28;45374;-79
2023/06/15 13:48:20;;;;;;;;;12.33;12.33;;;;;;;;5047007;28;45388;-80
2023/06/15 13:50:45;;;;;;;;;15.33;13.33;;;;;;;;5051165;28;45438;-82
2023/06/15 13:53:10;;;;;;;;;15.33;13.00;;;;;;;;5046337;28;45375;-79
2023/06/15 13:55:36;;;;;;;;;18.33;14.67;;;;;;;;5055659;28;45550;-80
2023/06/15 13:58:01;;;;;;;;;13.67;13.33;;;;;;;;5057224;28;45427;-79
2023/06/15 14:00:27;;;;;;;;;14.67;14.00;;;;;;;;5053562;28;45491;-79
2023/06/15 14:02:52;;;;;;;;;16.00;14.00;;;;;;;;5047936;28;45531;-79
2023/06/15 14:05:17;;;;;;;;;15.67;12.67;;;;;;;;5049293;28;45836;-78
2023/06/15 14:07:42;;;;;;;;;13.33;12.33;;;;;;;;5054477;28;45709;-79
2023/06/15 14:10:13;;;;;;;;;15.00;15.00;;;;;;;;5055484;28;46651;-80
2023/06/15 14:12:38;;;;;;;;;15.00;14.67;;;;;;;;5056367;28;45318;-80
2023/06/15 14:15:06;;;;;;;;;14.67;14.67;;;;;;;;5049797;28;45410;-79
2023/06/15 14:17:31;;;;;;;;;14.00;12.00;;;;;;;;5044685;28;46512;-79
2023/06/15 14:19:56;;;;;;;;;8.33;8.00;;;;;;;;5056116;28;45248;-79